sensor_id;sensor_type;location;lat;lon;timestamp;temperature;humidity
22503;DHT22;11418;48.118;9.992;2022-08-19T00:00:43;17.40;99.90
22503;DHT22;11418;48.118;9.992;2022-08-19T00:04:44;17.40;99.90
22503;DHT22;11418;48.118;9.992;2022-08-19T00:08:50;17.40;99.90
22503;DHT22;11418;48.118;9.992;2022-08-19T00:17:49;16.90;99.90
22503;DHT22;11418;48.118;9.992;2022-08-19T00:36:50;16.80;99.90
22503;DHT22;11418;48.118;9.992;2022-08-19T00:41:29;17.00;99.90
22503;DHT22;11418;48.118;9.992;2022-08-19T01:05:41;16.90;99.90
22503;DHT22;11418;48.118;9.992;2022-08-19T01:26:57;17.20;99.90
22503;DHT22;11418;48.118;9.992;2022-08-19T01:31:16;17.10;99.90
22503;DHT22;11418;48.118;9.992;2022-08-19T01:35:31;17.00;99.90
22503;DHT22;11418;48.118;9.992;2022-08-19T01:39:52;17.00;99.90
22503;DHT22;11418;48.118;9.992;2022-08-19T01:44:04;17.30;99.90
22503;DHT22;11418;48.118;9.992;2022-08-19T01:48:59;17.20;99.90
22503;DHT22;11418;48.118;9.992;2022-08-19T01:53:02;17.40;99.90
22503;DHT22;11418;48.118;9.992;2022-08-19T01:57:13;17.30;99.90
22503;DHT22;11418;48.118;9.992;2022-08-19T02:01:31;17.20;99.90
22503;DHT22;11418;48.118;9.992;2022-08-19T02:05:32;17.10;99.90
22503;DHT22;11418;48.118;9.992;2022-08-19T02:09:41;17.00;99.90
22503;DHT22;11418;48.118;9.992;2022-08-19T02:13:41;17.10;99.90
22503;DHT22;11418;48.118;9.992;2022-08-19T02:17:42;17.60;99.90
22503;DHT22;11418;48.118;9.992;2022-08-19T02:21:46;17.70;99.90
22503;DHT22;11418;48.118;9.992;2022-08-19T02:25:51;17.50;99.90
22503;DHT22;11418;48.118;9.992;2022-08-19T02:29:52;17.50;99.90
22503;DHT22;11418;48.118;9.992;2022-08-19T02:33:53;17.20;99.90
22503;DHT22;11418;48.118;9.992;2022-08-19T02:37:54;17.30;99.90
22503;DHT22;11418;48.118;9.992;2022-08-19T02:42:13;17.20;99.90
22503;DHT22;11418;48.118;9.992;2022-08-19T02:46:21;17.20;99.90
22503;DHT22;11418;48.118;9.992;2022-08-19T02:50:21;17.20;99.90
22503;DHT22;11418;48.118;9.992;2022-08-19T02:54:22;17.20;99.90
22503;DHT22;11418;48.118;9.992;2022-08-19T02:58:23;17.10;99.90
22503;DHT22;11418;48.118;9.992;2022-08-19T03:02:24;17.20;99.90
22503;DHT22;11418;48.118;9.992;2022-08-19T03:06:25;17.20;99.90
22503;DHT22;11418;48.118;9.992;2022-08-19T03:10:26;17.10;99.90
22503;DHT22;11418;48.118;9.992;2022-08-19T03:14:26;17.10;99.90
22503;DHT22;11418;48.118;9.992;2022-08-19T03:18:28;17.10;99.90
22503;DHT22;11418;48.118;9.992;2022-08-19T03:22:28;16.90;99.90
22503;DHT22;11418;48.118;9.992;2022-08-19T03:26:30;17.00;99.90
22503;DHT22;11418;48.118;9.992;2022-08-19T03:30:30;17.00;99.90
22503;DHT22;11418;48.118;9.992;2022-08-19T03:34:33;17.00;99.90
22503;DHT22;11418;48.118;9.992;2022-08-19T03:38:37;17.00;99.90
22503;DHT22;11418;48.118;9.992;2022-08-19T03:42:38;16.90;99.90
22503;DHT22;11418;48.118;9.992;2022-08-19T03:46:39;16.90;99.90
22503;DHT22;11418;48.118;9.992;2022-08-19T03:50:40;16.90;99.90
22503;DHT22;11418;48.118;9.992;2022-08-19T03:54:41;17.10;99.90
22503;DHT22;11418;48.118;9.992;2022-08-19T03:58:42;17.00;99.90
22503;DHT22;11418;48.118;9.992;2022-08-19T04:02:42;16.90;99.90
22503;DHT22;11418;48.118;9.992;2022-08-19T04:06:44;16.80;99.90
22503;DHT22;11418;48.118;9.992;2022-08-19T04:10:44;16.70;99.90
22503;DHT22;11418;48.118;9.992;2022-08-19T04:14:45;16.70;99.90
22503;DHT22;11418;48.118;9.992;2022-08-19T04:18:47;16.70;99.90
22503;DHT22;11418;48.118;9.992;2022-08-19T04:22:48;16.60;99.90
22503;DHT22;11418;48.118;9.992;2022-08-19T04:26:49;16.60;99.90
22503;DHT22;11418;48.118;9.992;2022-08-19T04:30:52;16.80;99.90
22503;DHT22;11418;48.118;9.992;2022-08-19T04:34:53;16.70;99.90
22503;DHT22;11418;48.118;9.992;2022-08-19T04:39:03;16.70;99.90
22503;DHT22;11418;48.118;9.992;2022-08-19T04:43:04;16.70;99.90
22503;DHT22;11418;48.118;9.992;2022-08-19T04:47:04;16.90;99.90
22503;DHT22;11418;48.118;9.992;2022-08-19T04:51:10;16.70;99.90
22503;DHT22;11418;48.118;9.992;2022-08-19T04:55:12;16.60;99.90
22503;DHT22;11418;48.118;9.992;2022-08-19T04:59:12;16.60;99.90
22503;DHT22;11418;48.118;9.992;2022-08-19T05:03:14;16.70;99.90
22503;DHT22;11418;48.118;9.992;2022-08-19T05:07:17;16.80;99.90
22503;DHT22;11418;48.118;9.992;2022-08-19T05:11:24;16.80;99.90
22503;DHT22;11418;48.118;9.992;2022-08-19T05:15:25;16.70;99.90
22503;DHT22;11418;48.118;9.992;2022-08-19T05:19:26;16.70;99.90
22503;DHT22;11418;48.118;9.992;2022-08-19T05:23:45;17.10;99.90
22503;DHT22;11418;48.118;9.992;2022-08-19T05:27:47;17.00;99.90
22503;DHT22;11418;48.118;9.992;2022-08-19T05:31:48;16.90;99.90
22503;DHT22;11418;48.118;9.992;2022-08-19T05:35:52;16.70;99.90
22503;DHT22;11418;48.118;9.992;2022-08-19T05:39:53;16.80;99.90
22503;DHT22;11418;48.118;9.992;2022-08-19T05:43:56;17.00;99.90
22503;DHT22;11418;48.118;9.992;2022-08-19T05:47:57;17.00;99.90
22503;DHT22;11418;48.118;9.992;2022-08-19T05:51:58;17.00;99.90
22503;DHT22;11418;48.118;9.992;2022-08-19T05:56:05;16.90;99.90
22503;DHT22;11418;48.118;9.992;2022-08-19T06:00:07;17.00;99.90
22503;DHT22;11418;48.118;9.992;2022-08-19T06:04:13;16.80;99.90
22503;DHT22;11418;48.118;9.992;2022-08-19T06:08:14;16.90;99.90
22503;DHT22;11418;48.118;9.992;2022-08-19T06:12:14;17.10;99.90
22503;DHT22;11418;48.118;9.992;2022-08-19T06:16:15;17.00;99.90
22503;DHT22;11418;48.118;9.992;2022-08-19T06:20:21;17.20;99.90
22503;DHT22;11418;48.118;9.992;2022-08-19T06:24:24;17.10;99.90
22503;DHT22;11418;48.118;9.992;2022-08-19T06:28:25;17.20;99.90
22503;DHT22;11418;48.118;9.992;2022-08-19T06:32:25;17.20;99.90
22503;DHT22;11418;48.118;9.992;2022-08-19T06:36:29;17.10;99.90
22503;DHT22;11418;48.118;9.992;2022-08-19T06:40:34;17.10;99.90
22503;DHT22;11418;48.118;9.992;2022-08-19T06:44:36;17.10;99.90
22503;DHT22;11418;48.118;9.992;2022-08-19T06:48:37;17.10;99.90
22503;DHT22;11418;48.118;9.992;2022-08-19T06:52:37;17.00;99.90
22503;DHT22;11418;48.118;9.992;2022-08-19T06:56:39;17.10;99.90
22503;DHT22;11418;48.118;9.992;2022-08-19T07:00:40;17.10;99.90
22503;DHT22;11418;48.118;9.992;2022-08-19T07:04:41;17.20;99.90
22503;DHT22;11418;48.118;9.992;2022-08-19T07:08:41;17.40;99.90
22503;DHT22;11418;48.118;9.992;2022-08-19T07:12:43;17.30;99.90
22503;DHT22;11418;48.118;9.992;2022-08-19T07:16:45;17.50;99.90
22503;DHT22;11418;48.118;9.992;2022-08-19T07:20:46;17.70;99.90
22503;DHT22;11418;48.118;9.992;2022-08-19T07:24:46;17.70;99.90
22503;DHT22;11418;48.118;9.992;2022-08-19T07:28:48;17.60;99.90
22503;DHT22;11418;48.118;9.992;2022-08-19T07:32:49;17.70;99.90
22503;DHT22;11418;48.118;9.992;2022-08-19T07:36:52;17.60;99.90
22503;DHT22;11418;48.118;9.992;2022-08-19T07:40:53;17.50;99.90
22503;DHT22;11418;48.118;9.992;2022-08-19T07:44:54;17.60;99.90
22503;DHT22;11418;48.118;9.992;2022-08-19T07:48:54;17.90;99.90
22503;DHT22;11418;48.118;9.992;2022-08-19T07:52:55;17.70;99.90
22503;DHT22;11418;48.118;9.992;2022-08-19T07:56:57;17.70;99.90
22503;DHT22;11418;48.118;9.992;2022-08-19T08:00:57;17.70;99.90
22503;DHT22;11418;48.118;9.992;2022-08-19T08:04:58;17.90;99.90
22503;DHT22;11418;48.118;9.992;2022-08-19T08:09:22;17.80;99.90
22503;DHT22;11418;48.118;9.992;2022-08-19T08:13:24;17.80;99.90
22503;DHT22;11418;48.118;9.992;2022-08-19T08:17:27;17.90;99.90
22503;DHT22;11418;48.118;9.992;2022-08-19T08:21:28;18.00;99.90
22503;DHT22;11418;48.118;9.992;2022-08-19T08:25:29;18.00;99.90
22503;DHT22;11418;48.118;9.992;2022-08-19T08:29:30;18.10;99.90
22503;DHT22;11418;48.118;9.992;2022-08-19T08:33:31;18.20;99.90
22503;DHT22;11418;48.118;9.992;2022-08-19T08:37:31;18.30;99.90
22503;DHT22;11418;48.118;9.992;2022-08-19T08:45:41;18.20;99.90
22503;DHT22;11418;48.118;9.992;2022-08-19T08:53:52;18.20;99.90
22503;DHT22;11418;48.118;9.992;2022-08-19T08:58:06;18.30;99.90
22503;DHT22;11418;48.118;9.992;2022-08-19T09:02:10;18.40;99.90
22503;DHT22;11418;48.118;9.992;2022-08-19T09:06:34;18.60;99.90
22503;DHT22;11418;48.118;9.992;2022-08-19T09:11:06;18.60;99.90
22503;DHT22;11418;48.118;9.992;2022-08-19T09:15:09;18.60;99.90
22503;DHT22;11418;48.118;9.992;2022-08-19T09:19:11;18.80;99.90
22503;DHT22;11418;48.118;9.992;2022-08-19T09:23:11;18.70;99.90
22503;DHT22;11418;48.118;9.992;2022-08-19T09:27:12;18.70;99.90
22503;DHT22;11418;48.118;9.992;2022-08-19T09:31:22;19.00;99.90
22503;DHT22;11418;48.118;9.992;2022-08-19T09:35:26;19.10;99.90
22503;DHT22;11418;48.118;9.992;2022-08-19T09:39:27;19.00;99.90
22503;DHT22;11418;48.118;9.992;2022-08-19T09:43:28;19.00;99.90
22503;DHT22;11418;48.118;9.992;2022-08-19T09:47:28;18.80;99.90
22503;DHT22;11418;48.118;9.992;2022-08-19T09:51:29;18.90;99.90
22503;DHT22;11418;48.118;9.992;2022-08-19T09:55:29;18.90;99.90
22503;DHT22;11418;48.118;9.992;2022-08-19T09:59:30;18.90;99.90
22503;DHT22;11418;48.118;9.992;2022-08-19T10:03:33;18.80;99.90
22503;DHT22;11418;48.118;9.992;2022-08-19T10:07:34;18.70;99.90
22503;DHT22;11418;48.118;9.992;2022-08-19T10:11:35;18.30;99.90
22503;DHT22;11418;48.118;9.992;2022-08-19T10:15:37;18.30;99.90
22503;DHT22;11418;48.118;9.992;2022-08-19T10:19:40;18.20;99.90
22503;DHT22;11418;48.118;9.992;2022-08-19T10:23:46;17.80;99.90
22503;DHT22;11418;48.118;9.992;2022-08-19T10:27:47;17.80;99.90
22503;DHT22;11418;48.118;9.992;2022-08-19T10:31:48;17.70;99.90
22503;DHT22;11418;48.118;9.992;2022-08-19T10:35:48;17.60;99.90
22503;DHT22;11418;48.118;9.992;2022-08-19T10:39:49;17.70;99.90
22503;DHT22;11418;48.118;9.992;2022-08-19T10:43:52;17.70;99.90
22503;DHT22;11418;48.118;9.992;2022-08-19T10:47:54;17.50;99.90
22503;DHT22;11418;48.118;9.992;2022-08-19T10:51:56;17.40;99.90
22503;DHT22;11418;48.118;9.992;2022-08-19T10:56:16;17.30;99.90
22503;DHT22;11418;48.118;9.992;2022-08-19T11:00:35;17.20;99.90
22503;DHT22;11418;48.118;9.992;2022-08-19T11:04:38;17.30;99.90
22503;DHT22;11418;48.118;9.992;2022-08-19T11:08:38;17.40;99.90
22503;DHT22;11418;48.118;9.992;2022-08-19T11:12:40;17.10;99.90
22503;DHT22;11418;48.118;9.992;2022-08-19T11:16:42;17.20;99.90
22503;DHT22;11418;48.118;9.992;2022-08-19T11:20:42;17.30;99.90
22503;DHT22;11418;48.118;9.992;2022-08-19T11:24:43;17.40;99.90
22503;DHT22;11418;48.118;9.992;2022-08-19T11:28:44;17.50;99.90
22503;DHT22;11418;48.118;9.992;2022-08-19T11:32:44;17.70;99.90
22503;DHT22;11418;48.118;9.992;2022-08-19T11:36:46;17.50;99.90
22503;DHT22;11418;48.118;9.992;2022-08-19T11:40:57;17.50;99.90
22503;DHT22;11418;48.118;9.992;2022-08-19T11:44:59;17.50;99.90
22503;DHT22;11418;48.118;9.992;2022-08-19T11:49:01;17.40;99.90
22503;DHT22;11418;48.118;9.992;2022-08-19T11:53:03;17.70;99.90
22503;DHT22;11418;48.118;9.992;2022-08-19T11:57:04;17.60;99.90
22503;DHT22;11418;48.118;9.992;2022-08-19T12:01:07;17.50;99.90
22503;DHT22;11418;48.118;9.992;2022-08-19T12:05:08;17.60;99.90
22503;DHT22;11418;48.118;9.992;2022-08-19T12:09:10;17.80;99.90
22503;DHT22;11418;48.118;9.992;2022-08-19T12:13:12;17.70;99.90
22503;DHT22;11418;48.118;9.992;2022-08-19T12:17:18;17.80;99.90
22503;DHT22;11418;48.118;9.992;2022-08-19T12:21:22;17.80;99.90
22503;DHT22;11418;48.118;9.992;2022-08-19T12:25:23;17.70;99.90
22503;DHT22;11418;48.118;9.992;2022-08-19T12:29:24;17.70;99.90
22503;DHT22;11418;48.118;9.992;2022-08-19T12:33:28;17.90;99.90
22503;DHT22;11418;48.118;9.992;2022-08-19T12:37:32;17.90;99.90
22503;DHT22;11418;48.118;9.992;2022-08-19T12:41:32;17.90;99.90
22503;DHT22;11418;48.118;9.992;2022-08-19T12:45:33;17.90;99.90
22503;DHT22;11418;48.118;9.992;2022-08-19T12:49:34;18.30;99.90
22503;DHT22;11418;48.118;9.992;2022-08-19T12:53:37;18.00;99.90
22503;DHT22;11418;48.118;9.992;2022-08-19T12:57:38;18.00;99.90
22503;DHT22;11418;48.118;9.992;2022-08-19T13:01:39;18.20;99.90
22503;DHT22;11418;48.118;9.992;2022-08-19T13:05:41;18.10;99.90
22503;DHT22;11418;48.118;9.992;2022-08-19T13:09:41;18.00;99.90
22503;DHT22;11418;48.118;9.992;2022-08-19T13:13:44;18.00;99.90
22503;DHT22;11418;48.118;9.992;2022-08-19T13:17:46;18.00;99.90
22503;DHT22;11418;48.118;9.992;2022-08-19T13:21:50;17.80;99.90
22503;DHT22;11418;48.118;9.992;2022-08-19T13:25:58;17.80;99.90
22503;DHT22;11418;48.118;9.992;2022-08-19T13:30:00;17.80;99.90
22503;DHT22;11418;48.118;9.992;2022-08-19T13:34:30;17.90;99.90
22503;DHT22;11418;48.118;9.992;2022-08-19T13:38:31;17.80;99.90
22503;DHT22;11418;48.118;9.992;2022-08-19T13:42:32;17.80;99.90
22503;DHT22;11418;48.118;9.992;2022-08-19T13:46:33;17.90;99.90
22503;DHT22;11418;48.118;9.992;2022-08-19T13:50:37;17.70;99.90
22503;DHT22;11418;48.118;9.992;2022-08-19T13:54:38;17.70;99.90
22503;DHT22;11418;48.118;9.992;2022-08-19T13:58:39;17.70;99.90
22503;DHT22;11418;48.118;9.992;2022-08-19T14:02:40;17.70;99.90
22503;DHT22;11418;48.118;9.992;2022-08-19T14:06:41;17.70;99.90
22503;DHT22;11418;48.118;9.992;2022-08-19T14:10:42;17.80;99.90
22503;DHT22;11418;48.118;9.992;2022-08-19T14:14:44;17.70;99.90
22503;DHT22;11418;48.118;9.992;2022-08-19T14:18:45;17.70;99.90
22503;DHT22;11418;48.118;9.992;2022-08-19T14:22:46;17.60;99.90
22503;DHT22;11418;48.118;9.992;2022-08-19T14:26:47;17.60;99.90
22503;DHT22;11418;48.118;9.992;2022-08-19T14:30:48;17.60;99.90
22503;DHT22;11418;48.118;9.992;2022-08-19T14:34:49;17.50;99.90
22503;DHT22;11418;48.118;9.992;2022-08-19T14:38:49;17.50;99.90
22503;DHT22;11418;48.118;9.992;2022-08-19T14:42:53;17.50;99.90
22503;DHT22;11418;48.118;9.992;2022-08-19T14:46:59;17.30;99.90
22503;DHT22;11418;48.118;9.992;2022-08-19T14:50:59;17.30;99.90
22503;DHT22;11418;48.118;9.992;2022-08-19T14:55:00;17.30;99.90
22503;DHT22;11418;48.118;9.992;2022-08-19T14:59:01;17.40;99.90
22503;DHT22;11418;48.118;9.992;2022-08-19T15:03:01;17.30;99.90
22503;DHT22;11418;48.118;9.992;2022-08-19T15:07:03;17.30;99.90
22503;DHT22;11418;48.118;9.992;2022-08-19T15:11:08;17.30;99.90
22503;DHT22;11418;48.118;9.992;2022-08-19T15:15:12;17.20;99.90
22503;DHT22;11418;48.118;9.992;2022-08-19T15:19:13;17.10;99.90
22503;DHT22;11418;48.118;9.992;2022-08-19T15:23:15;17.10;99.90
22503;DHT22;11418;48.118;9.992;2022-08-19T15:27:16;17.10;99.90
22503;DHT22;11418;48.118;9.992;2022-08-19T15:31:19;17.20;99.90
22503;DHT22;11418;48.118;9.992;2022-08-19T15:35:23;17.00;99.90
22503;DHT22;11418;48.118;9.992;2022-08-19T15:39:26;17.10;99.90
22503;DHT22;11418;48.118;9.992;2022-08-19T15:43:27;17.10;99.90
22503;DHT22;11418;48.118;9.992;2022-08-19T15:47:31;17.10;99.90
22503;DHT22;11418;48.118;9.992;2022-08-19T15:51:33;17.20;99.90
22503;DHT22;11418;48.118;9.992;2022-08-19T15:55:43;17.20;99.90
22503;DHT22;11418;48.118;9.992;2022-08-19T15:59:44;17.20;99.90
22503;DHT22;11418;48.118;9.992;2022-08-19T16:04:03;17.20;99.90
22503;DHT22;11418;48.118;9.992;2022-08-19T16:08:22;17.40;99.90
22503;DHT22;11418;48.118;9.992;2022-08-19T16:12:23;17.30;99.90
22503;DHT22;11418;48.118;9.992;2022-08-19T16:16:29;17.10;99.90
22503;DHT22;11418;48.118;9.992;2022-08-19T16:20:30;17.20;99.90
22503;DHT22;11418;48.118;9.992;2022-08-19T16:24:31;17.20;99.90
22503;DHT22;11418;48.118;9.992;2022-08-19T16:28:33;17.20;99.90
22503;DHT22;11418;48.118;9.992;2022-08-19T16:32:33;17.20;99.90
22503;DHT22;11418;48.118;9.992;2022-08-19T16:36:34;17.10;99.90
22503;DHT22;11418;48.118;9.992;2022-08-19T16:40:34;17.10;99.90
22503;DHT22;11418;48.118;9.992;2022-08-19T16:44:36;17.10;99.90
22503;DHT22;11418;48.118;9.992;2022-08-19T16:48:39;17.30;99.90
22503;DHT22;11418;48.118;9.992;2022-08-19T16:52:51;17.40;99.90
22503;DHT22;11418;48.118;9.992;2022-08-19T16:56:52;17.30;99.90
22503;DHT22;11418;48.118;9.992;2022-08-19T17:01:21;17.20;99.90
22503;DHT22;11418;48.118;9.992;2022-08-19T17:05:22;17.10;99.90
22503;DHT22;11418;48.118;9.992;2022-08-19T17:09:22;17.10;99.90
22503;DHT22;11418;48.118;9.992;2022-08-19T17:13:25;17.00;99.90
22503;DHT22;11418;48.118;9.992;2022-08-19T17:17:26;17.10;99.90
22503;DHT22;11418;48.118;9.992;2022-08-19T17:21:30;17.10;99.90
22503;DHT22;11418;48.118;9.992;2022-08-19T17:25:32;17.10;99.90
22503;DHT22;11418;48.118;9.992;2022-08-19T17:29:33;17.10;99.90
22503;DHT22;11418;48.118;9.992;2022-08-19T17:33:34;17.40;99.90
22503;DHT22;11418;48.118;9.992;2022-08-19T17:37:35;17.50;99.90
22503;DHT22;11418;48.118;9.992;2022-08-19T17:41:36;17.30;99.90
22503;DHT22;11418;48.118;9.992;2022-08-19T17:45:37;17.60;99.90
22503;DHT22;11418;48.118;9.992;2022-08-19T17:49:38;17.60;99.90
22503;DHT22;11418;48.118;9.992;2022-08-19T17:53:39;17.20;99.90
22503;DHT22;11418;48.118;9.992;2022-08-19T17:57:40;17.30;99.90
22503;DHT22;11418;48.118;9.992;2022-08-19T18:01:46;17.40;99.90
22503;DHT22;11418;48.118;9.992;2022-08-19T18:05:46;17.30;99.90
22503;DHT22;11418;48.118;9.992;2022-08-19T18:09:48;17.20;99.90
22503;DHT22;11418;48.118;9.992;2022-08-19T18:13:51;17.30;99.90
22503;DHT22;11418;48.118;9.992;2022-08-19T18:17:51;17.50;99.90
22503;DHT22;11418;48.118;9.992;2022-08-19T18:21:52;17.40;99.90
22503;DHT22;11418;48.118;9.992;2022-08-19T18:25:52;17.30;99.90
22503;DHT22;11418;48.118;9.992;2022-08-19T18:29:53;17.10;99.90
22503;DHT22;11418;48.118;9.992;2022-08-19T18:33:58;17.20;99.90
22503;DHT22;11418;48.118;9.992;2022-08-19T18:38:01;17.30;99.90
22503;DHT22;11418;48.118;9.992;2022-08-19T18:42:22;17.40;99.90
22503;DHT22;11418;48.118;9.992;2022-08-19T18:46:41;17.20;99.90
22503;DHT22;11418;48.118;9.992;2022-08-19T18:51:17;16.90;99.90
22503;DHT22;11418;48.118;9.992;2022-08-19T18:55:18;16.90;99.90
22503;DHT22;11418;48.118;9.992;2022-08-19T18:59:18;16.80;99.90
22503;DHT22;11418;48.118;9.992;2022-08-19T19:03:20;16.90;99.90
22503;DHT22;11418;48.118;9.992;2022-08-19T19:07:20;16.80;99.90
22503;DHT22;11418;48.118;9.992;2022-08-19T19:11:33;16.70;99.90
22503;DHT22;11418;48.118;9.992;2022-08-19T19:15:34;16.70;99.90
22503;DHT22;11418;48.118;9.992;2022-08-19T19:19:36;16.70;99.90
22503;DHT22;11418;48.118;9.992;2022-08-19T19:23:41;16.70;99.90
22503;DHT22;11418;48.118;9.992;2022-08-19T19:27:42;17.00;99.90
22503;DHT22;11418;48.118;9.992;2022-08-19T19:31:43;16.90;99.90
22503;DHT22;11418;48.118;9.992;2022-08-19T19:35:43;16.80;99.90
22503;DHT22;11418;48.118;9.992;2022-08-19T19:39:45;16.70;99.90
22503;DHT22;11418;48.118;9.992;2022-08-19T19:43:47;16.70;99.90
22503;DHT22;11418;48.118;9.992;2022-08-19T19:47:48;16.60;99.90
22503;DHT22;11418;48.118;9.992;2022-08-19T19:51:49;16.70;99.90
22503;DHT22;11418;48.118;9.992;2022-08-19T19:55:55;16.80;99.90
22503;DHT22;11418;48.118;9.992;2022-08-19T19:59:58;16.70;99.90
22503;DHT22;11418;48.118;9.992;2022-08-19T20:03:58;16.70;99.90
22503;DHT22;11418;48.118;9.992;2022-08-19T20:08:00;16.60;99.90
22503;DHT22;11418;48.118;9.992;2022-08-19T20:12:19;16.60;99.90
22503;DHT22;11418;48.118;9.992;2022-08-19T20:16:20;16.60;99.90
22503;DHT22;11418;48.118;9.992;2022-08-19T20:20:25;16.80;99.90
22503;DHT22;11418;48.118;9.992;2022-08-19T20:24:30;16.70;99.90
22503;DHT22;11418;48.118;9.992;2022-08-19T20:28:34;16.70;99.90
22503;DHT22;11418;48.118;9.992;2022-08-19T20:32:35;16.70;99.90
22503;DHT22;11418;48.118;9.992;2022-08-19T20:36:36;16.80;99.90
22503;DHT22;11418;48.118;9.992;2022-08-19T20:44:48;16.90;99.90
22503;DHT22;11418;48.118;9.992;2022-08-19T20:48:49;16.80;99.90
22503;DHT22;11418;48.118;9.992;2022-08-19T20:52:49;16.80;99.90
22503;DHT22;11418;48.118;9.992;2022-08-19T20:56:50;16.90;99.90
22503;DHT22;11418;48.118;9.992;2022-08-19T21:00:53;16.90;99.90
22503;DHT22;11418;48.118;9.992;2022-08-19T21:04:56;17.00;99.90
22503;DHT22;11418;48.118;9.992;2022-08-19T21:08:56;17.00;99.90
22503;DHT22;11418;48.118;9.992;2022-08-19T21:12:57;17.00;99.90
22503;DHT22;11418;48.118;9.992;2022-08-19T21:16:58;17.10;99.90
22503;DHT22;11418;48.118;9.992;2022-08-19T21:20:58;17.20;99.90
22503;DHT22;11418;48.118;9.992;2022-08-19T21:24:59;17.20;99.90
22503;DHT22;11418;48.118;9.992;2022-08-19T21:28:59;17.20;99.90
22503;DHT22;11418;48.118;9.992;2022-08-19T21:33:01;17.00;99.90
22503;DHT22;11418;48.118;9.992;2022-08-19T21:37:02;17.10;99.90
22503;DHT22;11418;48.118;9.992;2022-08-19T21:41:04;16.90;99.90
22503;DHT22;11418;48.118;9.992;2022-08-19T21:45:05;17.00;99.90
22503;DHT22;11418;48.118;9.992;2022-08-19T21:49:06;17.00;99.90
22503;DHT22;11418;48.118;9.992;2022-08-19T21:53:09;16.90;99.90
22503;DHT22;11418;48.118;9.992;2022-08-19T21:57:10;17.10;99.90
22503;DHT22;11418;48.118;9.992;2022-08-19T22:01:11;16.90;99.90
22503;DHT22;11418;48.118;9.992;2022-08-19T22:05:12;16.90;99.90
22503;DHT22;11418;48.118;9.992;2022-08-19T22:09:13;16.80;99.90
22503;DHT22;11418;48.118;9.992;2022-08-19T22:13:14;16.90;99.90
22503;DHT22;11418;48.118;9.992;2022-08-19T22:17:17;16.80;99.90
22503;DHT22;11418;48.118;9.992;2022-08-19T22:21:19;16.80;99.90
22503;DHT22;11418;48.118;9.992;2022-08-19T22:25:29;16.80;99.90
22503;DHT22;11418;48.118;9.992;2022-08-19T22:29:30;16.70;99.90
22503;DHT22;11418;48.118;9.992;2022-08-19T22:33:31;16.60;99.90
22503;DHT22;11418;48.118;9.992;2022-08-19T22:37:32;16.70;99.90
22503;DHT22;11418;48.118;9.992;2022-08-19T22:41:32;16.70;99.90
22503;DHT22;11418;48.118;9.992;2022-08-19T22:45:34;16.90;99.90
22503;DHT22;11418;48.118;9.992;2022-08-19T22:49:35;16.80;99.90
22503;DHT22;11418;48.118;9.992;2022-08-19T22:53:38;17.00;99.90
22503;DHT22;11418;48.118;9.992;2022-08-19T22:57:39;16.80;99.90
22503;DHT22;11418;48.118;9.992;2022-08-19T23:01:39;16.80;99.90
22503;DHT22;11418;48.118;9.992;2022-08-19T23:05:41;17.00;99.90
22503;DHT22;11418;48.118;9.992;2022-08-19T23:09:42;17.10;99.90
22503;DHT22;11418;48.118;9.992;2022-08-19T23:13:42;17.00;99.90
22503;DHT22;11418;48.118;9.992;2022-08-19T23:17:43;16.80;99.90
22503;DHT22;11418;48.118;9.992;2022-08-19T23:21:43;16.90;99.90
22503;DHT22;11418;48.118;9.992;2022-08-19T23:25:45;17.00;99.90
22503;DHT22;11418;48.118;9.992;2022-08-19T23:29:47;17.00;99.90
22503;DHT22;11418;48.118;9.992;2022-08-19T23:34:06;17.00;99.90
22503;DHT22;11418;48.118;9.992;2022-08-19T23:38:09;17.00;99.90
22503;DHT22;11418;48.118;9.992;2022-08-19T23:42:10;17.00;99.90
22503;DHT22;11418;48.118;9.992;2022-08-19T23:46:12;16.90;99.90
22503;DHT22;11418;48.118;9.992;2022-08-19T23:50:13;17.00;99.90
22503;DHT22;11418;48.118;9.992;2022-08-19T23:54:14;17.00;99.90
22503;DHT22;11418;48.118;9.992;2022-08-19T23:58:16;16.90;99.90
